sensor_id;sensor_type;location;lat;lon;timestamp;P1;durP1;ratioP1;P2;durP2;ratioP2
13222;SDS011;6676;45.192;5.722;2023-04-27T00:01:33;1.47;;;0.72;;
13222;SDS011;6676;45.192;5.722;2023-04-27T00:04:24;2.37;;;1.10;;
13222;SDS011;6676;45.192;5.722;2023-04-27T00:07:16;3.35;;;1.00;;
13222;SDS011;6676;45.192;5.722;2023-04-27T00:10:10;2.42;;;0.95;;
13222;SDS011;6676;45.192;5.722;2023-04-27T00:13:01;1.70;;;0.90;;
13222;SDS011;6676;45.192;5.722;2023-04-27T00:15:53;1.87;;;0.82;;
13222;SDS011;6676;45.192;5.722;2023-04-27T00:18:45;2.25;;;0.93;;
13222;SDS011;6676;45.192;5.722;2023-04-27T00:21:36;2.35;;;1.22;;
13222;SDS011;6676;45.192;5.722;2023-04-27T00:24:28;1.27;;;0.80;;
13222;SDS011;6676;45.192;5.722;2023-04-27T00:27:19;1.57;;;0.90;;
13222;SDS011;6676;45.192;5.722;2023-04-27T00:32:49;2.00;;;0.95;;
13222;SDS011;6676;45.192;5.722;2023-04-27T00:35:40;2.37;;;1.00;;
13222;SDS011;6676;45.192;5.722;2023-04-27T00:38:32;2.27;;;1.00;;
13222;SDS011;6676;45.192;5.722;2023-04-27T00:41:25;1.40;;;0.85;;
13222;SDS011;6676;45.192;5.722;2023-04-27T00:44:21;3.85;;;1.00;;
13222;SDS011;6676;45.192;5.722;2023-04-27T00:47:13;1.55;;;0.80;;
13222;SDS011;6676;45.192;5.722;2023-04-27T00:50:05;1.62;;;0.90;;
13222;SDS011;6676;45.192;5.722;2023-04-27T00:52:59;1.87;;;0.80;;
13222;SDS011;6676;45.192;5.722;2023-04-27T00:55:51;1.37;;;0.90;;
13222;SDS011;6676;45.192;5.722;2023-04-27T00:58:43;2.72;;;0.82;;
13222;SDS011;6676;45.192;5.722;2023-04-27T01:01:34;2.55;;;0.90;;
13222;SDS011;6676;45.192;5.722;2023-04-27T01:04:26;1.47;;;1.02;;
13222;SDS011;6676;45.192;5.722;2023-04-27T01:07:24;1.65;;;0.85;;
13222;SDS011;6676;45.192;5.722;2023-04-27T01:10:15;2.70;;;0.90;;
13222;SDS011;6676;45.192;5.722;2023-04-27T01:13:07;2.27;;;1.02;;
13222;SDS011;6676;45.192;5.722;2023-04-27T01:15:58;2.80;;;1.00;;
13222;SDS011;6676;45.192;5.722;2023-04-27T01:18:50;4.62;;;1.00;;
13222;SDS011;6676;45.192;5.722;2023-04-27T01:21:43;2.90;;;0.88;;
13222;SDS011;6676;45.192;5.722;2023-04-27T01:24:34;1.40;;;0.93;;
13222;SDS011;6676;45.192;5.722;2023-04-27T01:27:26;2.80;;;1.17;;
13222;SDS011;6676;45.192;5.722;2023-04-27T01:30:17;1.55;;;0.90;;
13222;SDS011;6676;45.192;5.722;2023-04-27T01:33:11;2.37;;;0.90;;
13222;SDS011;6676;45.192;5.722;2023-04-27T01:36:03;2.15;;;1.00;;
13222;SDS011;6676;45.192;5.722;2023-04-27T01:38:55;2.87;;;1.00;;
13222;SDS011;6676;45.192;5.722;2023-04-27T01:41:47;1.40;;;1.00;;
13222;SDS011;6676;45.192;5.722;2023-04-27T01:44:38;1.45;;;0.88;;
13222;SDS011;6676;45.192;5.722;2023-04-27T01:47:29;2.58;;;0.80;;
13222;SDS011;6676;45.192;5.722;2023-04-27T01:50:20;2.77;;;1.00;;
13222;SDS011;6676;45.192;5.722;2023-04-27T01:53:12;4.40;;;1.00;;
13222;SDS011;6676;45.192;5.722;2023-04-27T01:56:04;1.77;;;0.78;;
13222;SDS011;6676;45.192;5.722;2023-04-27T01:58:55;1.80;;;0.93;;
13222;SDS011;6676;45.192;5.722;2023-04-27T02:01:47;1.92;;;1.10;;
13222;SDS011;6676;45.192;5.722;2023-04-27T02:04:38;1.47;;;0.88;;
13222;SDS011;6676;45.192;5.722;2023-04-27T02:07:33;3.95;;;1.17;;
13222;SDS011;6676;45.192;5.722;2023-04-27T02:10:24;4.17;;;0.98;;
13222;SDS011;6676;45.192;5.722;2023-04-27T02:13:15;1.87;;;1.07;;
13222;SDS011;6676;45.192;5.722;2023-04-27T02:16:07;1.90;;;1.22;;
13222;SDS011;6676;45.192;5.722;2023-04-27T02:18:59;1.55;;;0.90;;
13222;SDS011;6676;45.192;5.722;2023-04-27T02:21:51;2.87;;;1.27;;
13222;SDS011;6676;45.192;5.722;2023-04-27T02:24:43;3.27;;;1.20;;
13222;SDS011;6676;45.192;5.722;2023-04-27T02:27:36;1.37;;;1.10;;
13222;SDS011;6676;45.192;5.722;2023-04-27T02:30:28;2.75;;;1.30;;
13222;SDS011;6676;45.192;5.722;2023-04-27T02:33:19;1.27;;;0.95;;
13222;SDS011;6676;45.192;5.722;2023-04-27T02:36:10;1.90;;;1.10;;
13222;SDS011;6676;45.192;5.722;2023-04-27T02:39:02;1.72;;;1.10;;
13222;SDS011;6676;45.192;5.722;2023-04-27T02:41:58;1.50;;;1.07;;
13222;SDS011;6676;45.192;5.722;2023-04-27T02:44:50;1.80;;;1.20;;
13222;SDS011;6676;45.192;5.722;2023-04-27T02:47:42;2.35;;;1.30;;
13222;SDS011;6676;45.192;5.722;2023-04-27T02:50:34;4.45;;;1.30;;
13222;SDS011;6676;45.192;5.722;2023-04-27T02:53:30;1.22;;;0.93;;
13222;SDS011;6676;45.192;5.722;2023-04-27T02:56:21;1.72;;;1.10;;
13222;SDS011;6676;45.192;5.722;2023-04-27T02:59:13;2.52;;;1.30;;
13222;SDS011;6676;45.192;5.722;2023-04-27T03:02:04;3.60;;;1.40;;
13222;SDS011;6676;45.192;5.722;2023-04-27T03:04:56;1.32;;;1.02;;
13222;SDS011;6676;45.192;5.722;2023-04-27T03:07:47;2.05;;;1.05;;
13222;SDS011;6676;45.192;5.722;2023-04-27T03:10:39;4.20;;;1.40;;
13222;SDS011;6676;45.192;5.722;2023-04-27T03:13:30;1.82;;;1.10;;
13222;SDS011;6676;45.192;5.722;2023-04-27T03:16:26;3.95;;;1.32;;
13222;SDS011;6676;45.192;5.722;2023-04-27T03:19:17;2.52;;;1.25;;
13222;SDS011;6676;45.192;5.722;2023-04-27T03:24:49;4.78;;;1.47;;
13222;SDS011;6676;45.192;5.722;2023-04-27T03:27:40;2.58;;;1.40;;
13222;SDS011;6676;45.192;5.722;2023-04-27T03:30:31;2.50;;;1.40;;
13222;SDS011;6676;45.192;5.722;2023-04-27T03:33:23;3.02;;;1.40;;
13222;SDS011;6676;45.192;5.722;2023-04-27T03:36:16;3.62;;;1.27;;
13222;SDS011;6676;45.192;5.722;2023-04-27T03:39:07;6.70;;;2.17;;
13222;SDS011;6676;45.192;5.722;2023-04-27T03:41:59;4.62;;;2.65;;
13222;SDS011;6676;45.192;5.722;2023-04-27T03:44:51;12.63;;;9.58;;
13222;SDS011;6676;45.192;5.722;2023-04-27T03:47:43;14.53;;;9.48;;
13222;SDS011;6676;45.192;5.722;2023-04-27T03:50:34;13.68;;;9.80;;
13222;SDS011;6676;45.192;5.722;2023-04-27T03:53:26;14.33;;;10.13;;
13222;SDS011;6676;45.192;5.722;2023-04-27T03:56:18;20.65;;;14.75;;
13222;SDS011;6676;45.192;5.722;2023-04-27T03:59:09;17.27;;;11.30;;
13222;SDS011;6676;45.192;5.722;2023-04-27T04:02:02;12.35;;;8.43;;
13222;SDS011;6676;45.192;5.722;2023-04-27T04:04:54;12.53;;;8.43;;
13222;SDS011;6676;45.192;5.722;2023-04-27T04:07:46;10.82;;;6.17;;
13222;SDS011;6676;45.192;5.722;2023-04-27T04:10:37;7.35;;;4.65;;
13222;SDS011;6676;45.192;5.722;2023-04-27T04:13:29;7.42;;;4.58;;
13222;SDS011;6676;45.192;5.722;2023-04-27T04:16:21;6.25;;;3.95;;
13222;SDS011;6676;45.192;5.722;2023-04-27T04:19:13;5.47;;;3.33;;
13222;SDS011;6676;45.192;5.722;2023-04-27T04:22:04;3.45;;;2.58;;
13222;SDS011;6676;45.192;5.722;2023-04-27T04:24:55;5.00;;;3.00;;
13222;SDS011;6676;45.192;5.722;2023-04-27T04:27:47;5.30;;;2.60;;
13222;SDS011;6676;45.192;5.722;2023-04-27T04:30:39;4.95;;;2.22;;
13222;SDS011;6676;45.192;5.722;2023-04-27T04:33:30;5.05;;;2.00;;
13222;SDS011;6676;45.192;5.722;2023-04-27T04:36:22;3.40;;;1.62;;
13222;SDS011;6676;45.192;5.722;2023-04-27T04:39:14;4.30;;;1.72;;
13222;SDS011;6676;45.192;5.722;2023-04-27T04:42:07;3.98;;;1.72;;
13222;SDS011;6676;45.192;5.722;2023-04-27T04:44:59;3.37;;;1.70;;
13222;SDS011;6676;45.192;5.722;2023-04-27T04:47:51;7.00;;;1.75;;
13222;SDS011;6676;45.192;5.722;2023-04-27T04:50:43;3.35;;;1.47;;
13222;SDS011;6676;45.192;5.722;2023-04-27T04:53:35;4.33;;;1.65;;
13222;SDS011;6676;45.192;5.722;2023-04-27T04:56:27;2.90;;;1.45;;
13222;SDS011;6676;45.192;5.722;2023-04-27T04:59:21;4.83;;;1.50;;
13222;SDS011;6676;45.192;5.722;2023-04-27T05:02:13;2.30;;;1.35;;
13222;SDS011;6676;45.192;5.722;2023-04-27T05:05:05;2.02;;;1.35;;
13222;SDS011;6676;45.192;5.722;2023-04-27T05:07:57;2.90;;;1.75;;
13222;SDS011;6676;45.192;5.722;2023-04-27T05:10:49;5.20;;;1.80;;
13222;SDS011;6676;45.192;5.722;2023-04-27T05:13:40;5.70;;;2.05;;
13222;SDS011;6676;45.192;5.722;2023-04-27T05:16:32;3.83;;;1.85;;
13222;SDS011;6676;45.192;5.722;2023-04-27T05:19:23;2.12;;;1.50;;
13222;SDS011;6676;45.192;5.722;2023-04-27T05:22:16;3.35;;;1.60;;
13222;SDS011;6676;45.192;5.722;2023-04-27T05:25:08;2.90;;;1.50;;
13222;SDS011;6676;45.192;5.722;2023-04-27T05:27:59;1.90;;;1.30;;
13222;SDS011;6676;45.192;5.722;2023-04-27T05:30:51;3.10;;;1.70;;
13222;SDS011;6676;45.192;5.722;2023-04-27T05:33:42;2.58;;;1.60;;
13222;SDS011;6676;45.192;5.722;2023-04-27T05:36:34;2.95;;;1.70;;
13222;SDS011;6676;45.192;5.722;2023-04-27T05:39:25;3.37;;;1.87;;
13222;SDS011;6676;45.192;5.722;2023-04-27T05:42:17;4.17;;;1.90;;
13222;SDS011;6676;45.192;5.722;2023-04-27T05:45:12;3.67;;;1.80;;
13222;SDS011;6676;45.192;5.722;2023-04-27T05:48:04;3.30;;;1.90;;
13222;SDS011;6676;45.192;5.722;2023-04-27T05:50:58;7.83;;;1.90;;
13222;SDS011;6676;45.192;5.722;2023-04-27T05:53:50;4.08;;;2.12;;
13222;SDS011;6676;45.192;5.722;2023-04-27T05:56:43;3.25;;;2.00;;
13222;SDS011;6676;45.192;5.722;2023-04-27T05:59:23;4.53;;;2.08;;
13222;SDS011;6676;45.192;5.722;2023-04-27T06:02:17;6.65;;;2.80;;
13222;SDS011;6676;45.192;5.722;2023-04-27T06:05:09;5.50;;;2.42;;
13222;SDS011;6676;45.192;5.722;2023-04-27T06:08:00;9.30;;;3.72;;
13222;SDS011;6676;45.192;5.722;2023-04-27T06:10:52;10.38;;;5.95;;
13222;SDS011;6676;45.192;5.722;2023-04-27T06:13:44;6.20;;;3.70;;
13222;SDS011;6676;45.192;5.722;2023-04-27T06:16:35;6.42;;;3.50;;
13222;SDS011;6676;45.192;5.722;2023-04-27T06:19:27;7.50;;;3.15;;
13222;SDS011;6676;45.192;5.722;2023-04-27T06:22:19;6.53;;;2.65;;
13222;SDS011;6676;45.192;5.722;2023-04-27T06:25:11;8.20;;;2.58;;
13222;SDS011;6676;45.192;5.722;2023-04-27T06:30:56;5.08;;;2.85;;
13222;SDS011;6676;45.192;5.722;2023-04-27T06:33:47;8.30;;;3.80;;
13222;SDS011;6676;45.192;5.722;2023-04-27T06:36:39;8.68;;;2.83;;
13222;SDS011;6676;45.192;5.722;2023-04-27T06:39:30;5.87;;;2.77;;
13222;SDS011;6676;45.192;5.722;2023-04-27T06:42:22;6.75;;;4.10;;
13222;SDS011;6676;45.192;5.722;2023-04-27T06:45:15;5.78;;;3.22;;
13222;SDS011;6676;45.192;5.722;2023-04-27T06:48:06;6.42;;;3.40;;
13222;SDS011;6676;45.192;5.722;2023-04-27T06:50:59;5.75;;;3.15;;
13222;SDS011;6676;45.192;5.722;2023-04-27T06:53:50;5.10;;;2.65;;
13222;SDS011;6676;45.192;5.722;2023-04-27T06:56:45;4.75;;;2.62;;
13222;SDS011;6676;45.192;5.722;2023-04-27T06:59:36;4.47;;;2.30;;
13222;SDS011;6676;45.192;5.722;2023-04-27T07:02:31;5.22;;;2.30;;
13222;SDS011;6676;45.192;5.722;2023-04-27T07:08:34;5.90;;;2.20;;
13222;SDS011;6676;45.192;5.722;2023-04-27T07:11:25;7.85;;;2.33;;
13222;SDS011;6676;45.192;5.722;2023-04-27T07:14:17;8.40;;;2.67;;
13222;SDS011;6676;45.192;5.722;2023-04-27T07:19:52;4.03;;;1.52;;
13222;SDS011;6676;45.192;5.722;2023-04-27T07:22:43;3.95;;;2.22;;
13222;SDS011;6676;45.192;5.722;2023-04-27T07:25:35;2.62;;;1.57;;
13222;SDS011;6676;45.192;5.722;2023-04-27T07:28:28;5.55;;;1.77;;
13222;SDS011;6676;45.192;5.722;2023-04-27T07:31:20;2.87;;;1.50;;
13222;SDS011;6676;45.192;5.722;2023-04-27T07:34:12;4.87;;;1.70;;
13222;SDS011;6676;45.192;5.722;2023-04-27T07:37:07;2.55;;;1.35;;
13222;SDS011;6676;45.192;5.722;2023-04-27T07:39:59;4.12;;;1.80;;
13222;SDS011;6676;45.192;5.722;2023-04-27T07:42:55;4.90;;;1.65;;
13222;SDS011;6676;45.192;5.722;2023-04-27T07:45:49;2.52;;;1.55;;
13222;SDS011;6676;45.192;5.722;2023-04-27T07:48:41;4.75;;;2.02;;
13222;SDS011;6676;45.192;5.722;2023-04-27T07:51:33;3.40;;;1.72;;
13222;SDS011;6676;45.192;5.722;2023-04-27T07:54:26;5.75;;;2.20;;
13222;SDS011;6676;45.192;5.722;2023-04-27T07:57:20;4.67;;;1.70;;
13222;SDS011;6676;45.192;5.722;2023-04-27T08:00:13;5.58;;;1.77;;
13222;SDS011;6676;45.192;5.722;2023-04-27T08:03:05;4.00;;;1.20;;
13222;SDS011;6676;45.192;5.722;2023-04-27T08:05:44;4.65;;;1.40;;
13222;SDS011;6676;45.192;5.722;2023-04-27T08:08:37;3.77;;;1.42;;
13222;SDS011;6676;45.192;5.722;2023-04-27T08:11:28;3.22;;;1.20;;
13222;SDS011;6676;45.192;5.722;2023-04-27T08:14:22;4.25;;;1.20;;
13222;SDS011;6676;45.192;5.722;2023-04-27T08:17:14;4.45;;;1.32;;
13222;SDS011;6676;45.192;5.722;2023-04-27T08:20:07;2.47;;;1.00;;
13222;SDS011;6676;45.192;5.722;2023-04-27T08:22:59;3.45;;;1.02;;
13222;SDS011;6676;45.192;5.722;2023-04-27T08:25:51;3.40;;;1.17;;
13222;SDS011;6676;45.192;5.722;2023-04-27T08:28:43;3.35;;;0.90;;
13222;SDS011;6676;45.192;5.722;2023-04-27T08:31:35;2.83;;;1.00;;
13222;SDS011;6676;45.192;5.722;2023-04-27T08:34:26;2.25;;;1.02;;
13222;SDS011;6676;45.192;5.722;2023-04-27T08:37:19;1.98;;;0.90;;
13222;SDS011;6676;45.192;5.722;2023-04-27T08:40:11;2.65;;;1.22;;
13222;SDS011;6676;45.192;5.722;2023-04-27T08:43:03;4.28;;;1.25;;
13222;SDS011;6676;45.192;5.722;2023-04-27T08:45:56;1.70;;;0.88;;
13222;SDS011;6676;45.192;5.722;2023-04-27T08:48:49;2.72;;;0.98;;
13222;SDS011;6676;45.192;5.722;2023-04-27T08:51:41;1.95;;;0.90;;
13222;SDS011;6676;45.192;5.722;2023-04-27T08:54:32;4.72;;;1.10;;
13222;SDS011;6676;45.192;5.722;2023-04-27T08:57:24;4.58;;;1.20;;
13222;SDS011;6676;45.192;5.722;2023-04-27T09:00:17;2.47;;;0.90;;
13222;SDS011;6676;45.192;5.722;2023-04-27T09:03:18;2.70;;;1.12;;
13222;SDS011;6676;45.192;5.722;2023-04-27T09:06:14;3.05;;;1.10;;
13222;SDS011;6676;45.192;5.722;2023-04-27T09:09:06;2.08;;;0.80;;
13222;SDS011;6676;45.192;5.722;2023-04-27T09:11:58;2.50;;;0.70;;
13222;SDS011;6676;45.192;5.722;2023-04-27T09:14:58;3.65;;;1.47;;
13222;SDS011;6676;45.192;5.722;2023-04-27T09:17:54;1.75;;;0.80;;
13222;SDS011;6676;45.192;5.722;2023-04-27T09:20:47;2.00;;;1.07;;
13222;SDS011;6676;45.192;5.722;2023-04-27T09:23:39;2.83;;;1.05;;
13222;SDS011;6676;45.192;5.722;2023-04-27T09:26:32;1.22;;;0.70;;
13222;SDS011;6676;45.192;5.722;2023-04-27T09:29:31;1.62;;;0.80;;
13222;SDS011;6676;45.192;5.722;2023-04-27T09:32:27;3.20;;;1.05;;
13222;SDS011;6676;45.192;5.722;2023-04-27T09:35:22;2.77;;;0.80;;
13222;SDS011;6676;45.192;5.722;2023-04-27T09:38:18;3.40;;;1.00;;
13222;SDS011;6676;45.192;5.722;2023-04-27T09:41:10;2.05;;;0.90;;
13222;SDS011;6676;45.192;5.722;2023-04-27T09:44:02;2.27;;;1.17;;
13222;SDS011;6676;45.192;5.722;2023-04-27T09:46:54;6.05;;;1.27;;
13222;SDS011;6676;45.192;5.722;2023-04-27T09:49:46;3.52;;;1.80;;
13222;SDS011;6676;45.192;5.722;2023-04-27T09:52:38;1.10;;;0.65;;
13222;SDS011;6676;45.192;5.722;2023-04-27T09:55:31;2.50;;;1.05;;
13222;SDS011;6676;45.192;5.722;2023-04-27T09:58:35;2.27;;;0.90;;
13222;SDS011;6676;45.192;5.722;2023-04-27T10:01:32;1.37;;;0.70;;
13222;SDS011;6676;45.192;5.722;2023-04-27T10:04:23;5.75;;;0.65;;
13222;SDS011;6676;45.192;5.722;2023-04-27T10:07:18;2.55;;;0.70;;
13222;SDS011;6676;45.192;5.722;2023-04-27T10:10:15;1.70;;;0.60;;
13222;SDS011;6676;45.192;5.722;2023-04-27T10:13:08;1.52;;;0.70;;
13222;SDS011;6676;45.192;5.722;2023-04-27T10:16:14;0.90;;;0.60;;
13222;SDS011;6676;45.192;5.722;2023-04-27T10:19:08;1.52;;;0.68;;
13222;SDS011;6676;45.192;5.722;2023-04-27T10:22:00;1.40;;;0.60;;
13222;SDS011;6676;45.192;5.722;2023-04-27T10:24:52;0.93;;;0.80;;
13222;SDS011;6676;45.192;5.722;2023-04-27T10:27:48;3.25;;;0.90;;
13222;SDS011;6676;45.192;5.722;2023-04-27T10:30:42;1.35;;;0.50;;
13222;SDS011;6676;45.192;5.722;2023-04-27T10:33:40;1.95;;;0.60;;
13222;SDS011;6676;45.192;5.722;2023-04-27T10:36:34;1.50;;;0.65;;
13222;SDS011;6676;45.192;5.722;2023-04-27T10:39:32;1.65;;;0.60;;
13222;SDS011;6676;45.192;5.722;2023-04-27T10:42:25;3.20;;;1.12;;
13222;SDS011;6676;45.192;5.722;2023-04-27T10:45:07;2.03;;;1.30;;
13222;SDS011;6676;45.192;5.722;2023-04-27T10:48:00;0.85;;;0.50;;
13222;SDS011;6676;45.192;5.722;2023-04-27T10:50:51;1.67;;;0.60;;
13222;SDS011;6676;45.192;5.722;2023-04-27T10:53:42;1.32;;;0.60;;
13222;SDS011;6676;45.192;5.722;2023-04-27T10:56:35;1.72;;;0.53;;
13222;SDS011;6676;45.192;5.722;2023-04-27T10:59:26;1.47;;;0.40;;
13222;SDS011;6676;45.192;5.722;2023-04-27T11:02:23;0.45;;;0.30;;
13222;SDS011;6676;45.192;5.722;2023-04-27T11:05:17;0.45;;;0.37;;
13222;SDS011;6676;45.192;5.722;2023-04-27T11:08:10;1.95;;;0.60;;
13222;SDS011;6676;45.192;5.722;2023-04-27T11:11:03;2.35;;;0.57;;
13222;SDS011;6676;45.192;5.722;2023-04-27T11:13:56;1.45;;;0.60;;
13222;SDS011;6676;45.192;5.722;2023-04-27T11:16:49;1.50;;;0.50;;
13222;SDS011;6676;45.192;5.722;2023-04-27T11:19:44;2.70;;;0.60;;
13222;SDS011;6676;45.192;5.722;2023-04-27T11:22:45;2.15;;;0.72;;
13222;SDS011;6676;45.192;5.722;2023-04-27T11:25:37;1.20;;;0.78;;
13222;SDS011;6676;45.192;5.722;2023-04-27T11:28:28;2.02;;;0.70;;
13222;SDS011;6676;45.192;5.722;2023-04-27T11:31:19;0.88;;;0.60;;
13222;SDS011;6676;45.192;5.722;2023-04-27T11:34:14;3.47;;;0.98;;
13222;SDS011;6676;45.192;5.722;2023-04-27T11:37:07;0.95;;;0.60;;
13222;SDS011;6676;45.192;5.722;2023-04-27T11:40:00;3.95;;;0.60;;
13222;SDS011;6676;45.192;5.722;2023-04-27T11:42:56;2.37;;;0.80;;
13222;SDS011;6676;45.192;5.722;2023-04-27T11:45:49;2.63;;;0.50;;
13222;SDS011;6676;45.192;5.722;2023-04-27T11:48:41;1.20;;;0.60;;
13222;SDS011;6676;45.192;5.722;2023-04-27T11:51:32;2.50;;;0.55;;
13222;SDS011;6676;45.192;5.722;2023-04-27T11:54:27;1.32;;;0.62;;
13222;SDS011;6676;45.192;5.722;2023-04-27T11:57:23;1.32;;;0.70;;
13222;SDS011;6676;45.192;5.722;2023-04-27T12:00:17;1.90;;;0.60;;
13222;SDS011;6676;45.192;5.722;2023-04-27T12:03:09;1.50;;;0.57;;
13222;SDS011;6676;45.192;5.722;2023-04-27T12:06:03;2.58;;;0.72;;
13222;SDS011;6676;45.192;5.722;2023-04-27T12:08:56;2.15;;;0.90;;
13222;SDS011;6676;45.192;5.722;2023-04-27T12:11:52;1.60;;;0.50;;
13222;SDS011;6676;45.192;5.722;2023-04-27T12:14:44;1.07;;;0.53;;
13222;SDS011;6676;45.192;5.722;2023-04-27T12:17:36;1.35;;;0.60;;
13222;SDS011;6676;45.192;5.722;2023-04-27T12:20:28;1.05;;;0.50;;
13222;SDS011;6676;45.192;5.722;2023-04-27T12:23:19;2.83;;;0.45;;
13222;SDS011;6676;45.192;5.722;2023-04-27T12:26:10;3.15;;;0.70;;
13222;SDS011;6676;45.192;5.722;2023-04-27T12:29:03;0.82;;;0.28;;
13222;SDS011;6676;45.192;5.722;2023-04-27T12:31:54;0.78;;;0.50;;
13222;SDS011;6676;45.192;5.722;2023-04-27T12:34:46;1.40;;;0.35;;
13222;SDS011;6676;45.192;5.722;2023-04-27T12:37:37;2.05;;;0.50;;
13222;SDS011;6676;45.192;5.722;2023-04-27T12:40:29;1.57;;;0.60;;
13222;SDS011;6676;45.192;5.722;2023-04-27T12:43:21;0.90;;;0.33;;
13222;SDS011;6676;45.192;5.722;2023-04-27T12:46:13;1.42;;;0.62;;
13222;SDS011;6676;45.192;5.722;2023-04-27T12:49:05;0.45;;;0.40;;
13222;SDS011;6676;45.192;5.722;2023-04-27T12:51:58;0.55;;;0.40;;
13222;SDS011;6676;45.192;5.722;2023-04-27T12:54:49;1.45;;;0.50;;
13222;SDS011;6676;45.192;5.722;2023-04-27T12:57:42;0.50;;;0.50;;
13222;SDS011;6676;45.192;5.722;2023-04-27T13:00:34;0.98;;;0.50;;
13222;SDS011;6676;45.192;5.722;2023-04-27T13:03:25;1.80;;;0.50;;
13222;SDS011;6676;45.192;5.722;2023-04-27T13:10:09;1.32;;;0.47;;
13222;SDS011;6676;45.192;5.722;2023-04-27T13:13:03;0.62;;;0.23;;
13222;SDS011;6676;45.192;5.722;2023-04-27T13:15:55;0.53;;;0.40;;
13222;SDS011;6676;45.192;5.722;2023-04-27T13:18:46;0.57;;;0.40;;
13222;SDS011;6676;45.192;5.722;2023-04-27T13:21:39;2.33;;;0.53;;
13222;SDS011;6676;45.192;5.722;2023-04-27T13:24:31;1.95;;;0.50;;
13222;SDS011;6676;45.192;5.722;2023-04-27T13:27:23;1.40;;;0.40;;
13222;SDS011;6676;45.192;5.722;2023-04-27T13:30:16;0.70;;;0.35;;
13222;SDS011;6676;45.192;5.722;2023-04-27T13:33:10;1.45;;;0.40;;
13222;SDS011;6676;45.192;5.722;2023-04-27T13:36:03;0.70;;;0.30;;
13222;SDS011;6676;45.192;5.722;2023-04-27T13:38:56;1.80;;;0.50;;
13222;SDS011;6676;45.192;5.722;2023-04-27T13:41:35;0.90;;;0.60;;
13222;SDS011;6676;45.192;5.722;2023-04-27T13:44:26;0.50;;;0.40;;
13222;SDS011;6676;45.192;5.722;2023-04-27T13:47:19;1.70;;;0.40;;
13222;SDS011;6676;45.192;5.722;2023-04-27T13:50:11;2.02;;;0.80;;
13222;SDS011;6676;45.192;5.722;2023-04-27T13:53:03;2.33;;;0.47;;
13222;SDS011;6676;45.192;5.722;2023-04-27T13:55:43;1.42;;;0.50;;
13222;SDS011;6676;45.192;5.722;2023-04-27T13:58:34;0.75;;;0.40;;
13222;SDS011;6676;45.192;5.722;2023-04-27T14:01:26;0.50;;;0.20;;
13222;SDS011;6676;45.192;5.722;2023-04-27T14:04:18;0.88;;;0.40;;
13222;SDS011;6676;45.192;5.722;2023-04-27T14:07:09;0.60;;;0.40;;
13222;SDS011;6676;45.192;5.722;2023-04-27T14:10:01;0.35;;;0.25;;
13222;SDS011;6676;45.192;5.722;2023-04-27T14:12:54;0.47;;;0.40;;
13222;SDS011;6676;45.192;5.722;2023-04-27T14:15:46;1.17;;;0.30;;
13222;SDS011;6676;45.192;5.722;2023-04-27T14:18:38;1.20;;;0.50;;
13222;SDS011;6676;45.192;5.722;2023-04-27T14:21:22;1.00;;;0.50;;
13222;SDS011;6676;45.192;5.722;2023-04-27T14:24:15;2.45;;;0.60;;
13222;SDS011;6676;45.192;5.722;2023-04-27T14:27:06;1.40;;;0.50;;
13222;SDS011;6676;45.192;5.722;2023-04-27T14:29:58;0.98;;;0.50;;
13222;SDS011;6676;45.192;5.722;2023-04-27T14:32:49;3.67;;;0.60;;
13222;SDS011;6676;45.192;5.722;2023-04-27T14:35:41;2.27;;;0.50;;
13222;SDS011;6676;45.192;5.722;2023-04-27T14:38:32;0.70;;;0.50;;
13222;SDS011;6676;45.192;5.722;2023-04-27T14:41:24;1.30;;;0.50;;
13222;SDS011;6676;45.192;5.722;2023-04-27T14:44:18;1.10;;;0.40;;
13222;SDS011;6676;45.192;5.722;2023-04-27T14:47:10;0.70;;;0.30;;
13222;SDS011;6676;45.192;5.722;2023-04-27T14:50:01;3.15;;;0.45;;
13222;SDS011;6676;45.192;5.722;2023-04-27T14:52:53;1.47;;;0.53;;
13222;SDS011;6676;45.192;5.722;2023-04-27T14:55:46;0.72;;;0.30;;
13222;SDS011;6676;45.192;5.722;2023-04-27T14:58:37;2.15;;;0.40;;
13222;SDS011;6676;45.192;5.722;2023-04-27T15:01:28;0.47;;;0.40;;
13222;SDS011;6676;45.192;5.722;2023-04-27T15:04:20;2.45;;;0.60;;
13222;SDS011;6676;45.192;5.722;2023-04-27T15:07:11;0.62;;;0.50;;
13222;SDS011;6676;45.192;5.722;2023-04-27T15:10:03;0.72;;;0.60;;
13222;SDS011;6676;45.192;5.722;2023-04-27T15:12:58;0.55;;;0.40;;
13222;SDS011;6676;45.192;5.722;2023-04-27T15:15:52;0.47;;;0.40;;
13222;SDS011;6676;45.192;5.722;2023-04-27T15:18:44;1.22;;;0.40;;
13222;SDS011;6676;45.192;5.722;2023-04-27T15:21:35;2.25;;;0.50;;
13222;SDS011;6676;45.192;5.722;2023-04-27T15:24:27;0.65;;;0.40;;
13222;SDS011;6676;45.192;5.722;2023-04-27T15:27:18;1.77;;;0.65;;
13222;SDS011;6676;45.192;5.722;2023-04-27T15:30:10;1.47;;;0.68;;
13222;SDS011;6676;45.192;5.722;2023-04-27T15:33:04;1.10;;;0.40;;
13222;SDS011;6676;45.192;5.722;2023-04-27T15:35:56;0.90;;;0.40;;
13222;SDS011;6676;45.192;5.722;2023-04-27T15:38:37;1.17;;;0.45;;
13222;SDS011;6676;45.192;5.722;2023-04-27T15:41:28;1.20;;;0.50;;
13222;SDS011;6676;45.192;5.722;2023-04-27T15:44:20;0.78;;;0.50;;
13222;SDS011;6676;45.192;5.722;2023-04-27T15:47:11;1.25;;;0.50;;
13222;SDS011;6676;45.192;5.722;2023-04-27T15:50:04;1.20;;;0.55;;
13222;SDS011;6676;45.192;5.722;2023-04-27T15:52:56;0.68;;;0.50;;
13222;SDS011;6676;45.192;5.722;2023-04-27T15:55:48;0.85;;;0.50;;
13222;SDS011;6676;45.192;5.722;2023-04-27T15:58:40;1.25;;;0.42;;
13222;SDS011;6676;45.192;5.722;2023-04-27T16:01:34;1.00;;;0.60;;
13222;SDS011;6676;45.192;5.722;2023-04-27T16:04:25;1.00;;;0.60;;
13222;SDS011;6676;45.192;5.722;2023-04-27T16:07:17;1.02;;;0.50;;
13222;SDS011;6676;45.192;5.722;2023-04-27T16:10:10;3.02;;;0.40;;
13222;SDS011;6676;45.192;5.722;2023-04-27T16:13:01;0.95;;;0.72;;
13222;SDS011;6676;45.192;5.722;2023-04-27T16:15:53;0.98;;;0.40;;
13222;SDS011;6676;45.192;5.722;2023-04-27T16:18:45;1.05;;;0.30;;
13222;SDS011;6676;45.192;5.722;2023-04-27T16:21:36;0.40;;;0.40;;
13222;SDS011;6676;45.192;5.722;2023-04-27T16:24:28;2.22;;;0.50;;
13222;SDS011;6676;45.192;5.722;2023-04-27T16:27:20;2.70;;;0.57;;
13222;SDS011;6676;45.192;5.722;2023-04-27T16:30:12;0.68;;;0.40;;
13222;SDS011;6676;45.192;5.722;2023-04-27T16:33:04;0.40;;;0.40;;
13222;SDS011;6676;45.192;5.722;2023-04-27T16:35:55;1.05;;;0.30;;
13222;SDS011;6676;45.192;5.722;2023-04-27T16:38:48;1.15;;;0.60;;
13222;SDS011;6676;45.192;5.722;2023-04-27T16:41:40;0.60;;;0.50;;
13222;SDS011;6676;45.192;5.722;2023-04-27T16:44:34;0.80;;;0.40;;
13222;SDS011;6676;45.192;5.722;2023-04-27T16:47:26;1.32;;;0.40;;
13222;SDS011;6676;45.192;5.722;2023-04-27T16:50:18;1.27;;;0.50;;
13222;SDS011;6676;45.192;5.722;2023-04-27T16:53:13;0.70;;;0.45;;
13222;SDS011;6676;45.192;5.722;2023-04-27T16:56:09;1.20;;;0.60;;
13222;SDS011;6676;45.192;5.722;2023-04-27T16:59:01;2.65;;;0.62;;
13222;SDS011;6676;45.192;5.722;2023-04-27T17:01:52;2.40;;;0.45;;
13222;SDS011;6676;45.192;5.722;2023-04-27T17:04:44;1.67;;;0.60;;
13222;SDS011;6676;45.192;5.722;2023-04-27T17:07:36;1.62;;;0.62;;
13222;SDS011;6676;45.192;5.722;2023-04-27T17:10:27;3.67;;;0.80;;
13222;SDS011;6676;45.192;5.722;2023-04-27T17:13:19;1.70;;;0.50;;
13222;SDS011;6676;45.192;5.722;2023-04-27T17:16:11;3.10;;;0.65;;
13222;SDS011;6676;45.192;5.722;2023-04-27T17:19:03;1.52;;;0.37;;
13222;SDS011;6676;45.192;5.722;2023-04-27T17:21:55;2.85;;;0.55;;
13222;SDS011;6676;45.192;5.722;2023-04-27T17:24:46;0.53;;;0.37;;
13222;SDS011;6676;45.192;5.722;2023-04-27T17:27:37;1.42;;;0.50;;
13222;SDS011;6676;45.192;5.722;2023-04-27T17:30:29;1.00;;;0.55;;
13222;SDS011;6676;45.192;5.722;2023-04-27T17:33:21;1.60;;;0.70;;
13222;SDS011;6676;45.192;5.722;2023-04-27T17:36:12;3.33;;;0.70;;
13222;SDS011;6676;45.192;5.722;2023-04-27T17:39:04;2.37;;;0.90;;
13222;SDS011;6676;45.192;5.722;2023-04-27T17:41:55;1.92;;;0.60;;
13222;SDS011;6676;45.192;5.722;2023-04-27T17:44:47;2.83;;;0.72;;
13222;SDS011;6676;45.192;5.722;2023-04-27T17:47:38;3.67;;;0.80;;
13222;SDS011;6676;45.192;5.722;2023-04-27T17:50:19;1.42;;;0.50;;